Time;durP1;ratioP1;P1;durP2;ratioP2;P2;SDS_P1;SDS_P2;PMS_P1;PMS_P2;Temp;Humidity;BMP_temperature;BMP_pressure;BME280_temperature;BME280_humidity;BME280_pressure;Samples;Min_cycle;Max_cycle;Signal;HPM_P1;HPM_P2
2021/04/22 00:01:04;;;;;;;15.69;10.64;;;;;;;8.46;66.20;99523.31;2128659;71;223393;-87
2021/04/22 00:04:06;;;;;;;13.52;11.34;;;;;;;8.50;65.93;99525.03;2006520;81;20187;-84
2021/04/22 00:10:25;;;;;;;15.59;12.63;;;;;;;8.39;66.73;99531.88;2091357;71;20215;-83
2021/04/22 00:13:29;;;;;;;11.87;9.97;;;;;;;8.25;67.56;99531.72;2003643;81;20597;-84
2021/04/22 00:16:33;;;;;;;10.31;9.25;;;;;;;8.26;67.60;99541.25;2002362;81;20201;-85
2021/04/22 00:19:36;;;;;;;14.51;9.14;;;;;;;8.03;68.23;99543.63;2001105;81;20332;-84
2021/04/22 00:22:38;;;;;;;12.52;10.75;;;;;;;7.89;68.51;99552.97;2002843;81;20240;-85
2021/04/22 00:25:43;;;;;;;11.34;9.30;;;;;;;7.73;69.26;99551.13;2002570;81;20227;-85
2021/04/22 00:28:45;;;;;;;12.18;9.30;;;;;;;7.60;69.76;99554.44;2000141;81;20226;-85
2021/04/22 00:31:47;;;;;;;14.29;10.35;;;;;;;7.47;69.81;99550.88;2006390;81;20320;-82
2021/04/22 00:34:49;;;;;;;11.80;8.75;;;;;;;7.36;70.46;99560.19;2002580;81;20144;-85
2021/04/22 00:41:11;;;;;;;15.74;9.99;;;;;;;7.13;71.06;99547.91;2051999;71;20297;-83
2021/04/22 00:44:13;;;;;;;14.52;10.39;;;;;;;7.08;71.39;99546.97;2006188;81;20335;-83
2021/04/22 00:47:15;;;;;;;13.19;9.90;;;;;;;7.02;72.10;99554.66;2002432;81;58964;-83
2021/04/22 00:50:26;;;;;;;12.24;9.84;;;;;;;6.97;72.22;99551.13;2002578;81;20343;-83
2021/04/22 00:53:29;;;;;;;11.26;9.69;;;;;;;6.95;72.01;99560.59;2000669;81;20351;-81
2021/04/22 00:56:31;;;;;;;13.90;9.73;;;;;;;6.88;72.21;99569.97;2003369;81;21023;-81
2021/04/22 00:59:33;;;;;;;12.88;10.20;;;;;;;6.74;72.11;99568.91;1999495;81;20304;-83
2021/04/22 01:02:37;;;;;;;11.49;10.25;;;;;;;6.65;72.42;99567.09;1999462;79;55965;-82
2021/04/22 01:05:43;;;;;;;12.29;10.15;;;;;;;6.54;72.76;99566.06;1999846;81;20343;-82
2021/04/22 01:08:45;;;;;;;16.27;9.57;;;;;;;6.57;72.74;99562.66;2002979;81;20207;-82
2021/04/22 01:11:48;;;;;;;13.69;10.07;;;;;;;6.58;72.47;99560.09;2002547;81;20316;-84
2021/04/22 01:14:50;;;;;;;12.23;9.65;;;;;;;6.57;72.63;99563.50;2000924;81;20351;-83
2021/04/22 01:17:52;;;;;;;15.44;10.27;;;;;;;6.45;72.85;99565.03;2001671;78;37821;-83
2021/04/22 01:20:54;;;;;;;11.06;9.40;;;;;;;6.41;73.04;99574.44;1998584;81;20337;-83
2021/04/22 01:23:56;;;;;;;12.09;8.94;;;;;;;6.41;73.21;99571.88;1999082;81;20319;-82
2021/04/22 01:26:58;;;;;;;17.94;11.09;;;;;;;6.35;73.39;99572.66;2002369;81;20503;-82
2021/04/22 01:30:00;;;;;;;12.24;9.46;;;;;;;6.29;73.83;99580.31;2001695;81;20328;-82
2021/04/22 01:33:03;;;;;;;11.60;9.80;;;;;;;6.26;73.94;99569.06;2001581;78;46050;-82
2021/04/22 01:36:06;;;;;;;11.24;9.77;;;;;;;6.22;74.12;99569.84;2001548;81;20439;-82
2021/04/22 01:39:11;;;;;;;12.38;9.82;;;;;;;6.16;73.98;99575.78;2000093;81;20362;-82
2021/04/22 01:42:13;;;;;;;12.89;9.79;;;;;;;6.04;73.89;99579.03;2001882;81;20388;-82
2021/04/22 01:45:15;;;;;;;14.56;9.44;;;;;;;6.05;73.75;99582.47;2003037;81;20364;-83
2021/04/22 01:48:17;;;;;;;12.48;9.95;;;;;;;6.02;73.73;99583.28;1998849;81;20557;-81
2021/04/22 01:51:20;;;;;;;13.35;10.00;;;;;;;6.00;73.79;99579.81;2004307;81;20349;-82
2021/04/22 01:54:21;;;;;;;12.66;9.90;;;;;;;5.91;74.19;99583.94;2000862;81;20349;-83
2021/04/22 01:57:23;;;;;;;15.04;9.98;;;;;;;5.90;74.08;99585.66;2001262;81;20369;-83
2021/04/22 02:00:29;;;;;;;13.99;10.02;;;;;;;5.89;74.61;99590.75;1997795;78;45471;-82
2021/04/22 02:03:32;;;;;;;15.98;10.96;;;;;;;5.86;75.04;99591.56;2004332;81;20316;-82
2021/04/22 02:06:34;;;;;;;14.91;10.76;;;;;;;5.85;75.73;99592.41;2004085;81;20316;-82
2021/04/22 02:09:35;;;;;;;16.38;12.09;;;;;;;6.00;76.11;99597.00;2000342;81;20336;-82
2021/04/22 02:12:37;;;;;;;17.29;11.56;;;;;;;6.16;77.14;99601.56;2001268;81;20331;-83
2021/04/22 02:15:39;;;;;;;13.61;9.90;;;;;;;6.43;77.10;99598.53;2000396;78;54646;-82
2021/04/22 02:18:41;;;;;;;11.02;9.11;;;;;;;6.42;75.90;99601.97;2002771;81;20353;-82
2021/04/22 02:21:43;;;;;;;18.54;11.86;;;;;;;6.37;75.39;99603.63;2001171;81;20377;-81
2021/04/22 02:24:45;;;;;;;12.91;10.30;;;;;;;6.44;76.61;99605.44;1998359;81;20329;-81
2021/04/22 02:27:46;;;;;;;12.76;11.30;;;;;;;6.77;76.91;99610.25;1999508;81;20357;-82
2021/04/22 02:30:48;;;;;;;14.26;10.54;;;;;;;7.04;76.45;99612.34;1998560;81;20711;-81
2021/04/22 02:33:53;;;;;;;12.89;10.55;;;;;;;7.18;75.62;99621.16;1997764;81;20352;-82
2021/04/22 02:36:55;;;;;;;14.00;10.80;;;;;;;7.31;74.96;99616.97;1999541;81;20315;-81
2021/04/22 02:39:56;;;;;;;14.64;10.45;;;;;;;7.44;74.41;99621.44;1999592;81;20377;-81
2021/04/22 02:42:59;;;;;;;17.34;10.57;;;;;;;7.53;73.75;99621.53;2000705;81;20183;-82
2021/04/22 02:46:01;;;;;;;10.81;9.32;;;;;;;7.55;73.31;99619.00;2003737;81;20347;-83
2021/04/22 02:49:04;;;;;;;14.11;9.75;;;;;;;7.58;72.83;99624.19;2001249;81;20233;-82
2021/04/22 02:52:06;;;;;;;14.76;9.46;;;;;;;7.57;72.61;99625.91;2000651;81;20307;-81
2021/04/22 02:55:08;;;;;;;12.81;9.48;;;;;;;7.57;72.49;99632.81;1998019;81;20372;-83
2021/04/22 02:58:10;;;;;;;13.39;9.09;;;;;;;7.57;72.37;99638.84;2000385;81;20423;-83
2021/04/22 03:01:11;;;;;;;12.20;9.00;;;;;;;7.58;72.37;99626.78;2004968;81;20335;-82
2021/04/22 03:04:13;;;;;;;11.66;8.52;;;;;;;7.60;72.50;99635.41;1998150;81;20359;-84
2021/04/22 03:07:15;;;;;;;15.56;11.09;;;;;;;7.61;72.22;99642.31;2000092;81;20300;-81
2021/04/22 03:10:19;;;;;;;13.95;8.59;;;;;;;7.62;72.37;99653.53;1999973;81;20806;-81
2021/04/22 03:13:21;;;;;;;12.10;7.94;;;;;;;7.69;71.85;99644.97;2003037;81;20316;-82
2021/04/22 03:16:23;;;;;;;11.32;7.41;;;;;;;7.67;71.62;99651.84;1996067;79;25140;-81
2021/04/22 03:19:24;;;;;;;15.00;8.04;;;;;;;7.70;71.56;99649.28;1994782;82;20204;-82
2021/04/22 03:22:26;;;;;;;9.91;7.29;;;;;;;7.65;71.39;99648.38;1995814;81;20321;-82
2021/04/22 03:25:28;;;;;;;11.69;7.26;;;;;;;7.67;70.96;99644.09;1994439;81;20220;-83
2021/04/22 03:28:30;;;;;;;12.94;6.59;;;;;;;7.61;70.98;99652.66;1999625;81;20387;-81
2021/04/22 03:31:32;;;;;;;8.61;6.05;;;;;;;7.57;70.68;99653.47;1996934;81;20324;-82
2021/04/22 03:34:33;;;;;;;9.09;5.60;;;;;;;7.58;70.14;99650.03;1994889;81;20370;-82
2021/04/22 03:37:35;;;;;;;11.60;6.10;;;;;;;7.58;69.86;99661.25;1997545;81;20162;-82
2021/04/22 03:40:37;;;;;;;9.04;5.49;;;;;;;7.52;69.72;99652.53;1995830;82;20354;-84
2021/04/22 03:43:38;;;;;;;10.44;6.01;;;;;;;7.48;69.70;99651.63;1995435;81;20329;-82
2021/04/22 03:46:40;;;;;;;9.65;5.51;;;;;;;7.46;69.60;99657.63;1998191;82;20172;-83
2021/04/22 03:49:43;;;;;;;9.07;5.40;;;;;;;7.44;69.58;99643.84;1995557;81;20442;-82
2021/04/22 03:52:46;;;;;;;8.43;5.26;;;;;;;7.38;69.58;99657.56;1996013;81;20740;-82
2021/04/22 03:55:48;;;;;;;7.63;5.11;;;;;;;7.36;69.79;99660.94;1994405;81;20332;-84
2021/04/22 03:58:49;;;;;;;8.73;5.28;;;;;;;7.33;69.74;99661.78;1995928;81;20334;-82
2021/04/22 04:01:51;;;;;;;9.59;5.64;;;;;;;7.27;70.18;99664.28;1997247;78;20555;-84
2021/04/22 04:04:53;;;;;;;11.61;5.13;;;;;;;7.24;70.36;99665.13;2004496;81;20379;-83
2021/04/22 04:07:55;;;;;;;11.41;6.29;;;;;;;7.20;70.21;99668.50;2001360;81;20320;-84
2021/04/22 04:10:56;;;;;;;8.18;5.55;;;;;;;7.14;70.64;99659.78;1999732;81;20401;-83
2021/04/22 04:13:58;;;;;;;7.85;5.04;;;;;;;7.11;70.66;99676.13;2003576;81;20357;-83
2021/04/22 04:17:01;;;;;;;8.95;5.38;;;;;;;7.12;70.47;99677.84;2000921;81;20365;-84
2021/04/22 04:20:06;;;;;;;9.89;5.29;;;;;;;7.11;70.29;99677.84;2004237;81;20344;-82
2021/04/22 04:23:08;;;;;;;7.53;4.41;;;;;;;7.07;70.30;99678.66;2001339;81;21142;-83
2021/04/22 04:26:10;;;;;;;12.59;5.01;;;;;;;7.05;69.93;99686.38;2000610;81;20357;-82
2021/04/22 04:29:11;;;;;;;8.19;3.69;;;;;;;7.02;69.80;99685.47;2004818;81;20339;-82
2021/04/22 04:32:13;;;;;;;10.55;4.00;;;;;;;6.97;69.72;99688.81;2000734;78;20390;-83
2021/04/22 04:35:15;;;;;;;9.71;4.28;;;;;;;6.93;69.65;99696.50;2001185;81;20331;-83
2021/04/22 04:41:37;;;;;;;7.16;4.05;;;;;;;6.86;69.18;99695.56;2014208;71;20376;-83
2021/04/22 04:44:39;;;;;;;8.89;4.38;;;;;;;6.86;69.11;99700.72;2003410;81;20328;-86
2021/04/22 04:47:42;;;;;;;13.06;4.47;;;;;;;6.83;68.88;99702.38;2005528;79;108795;-86
2021/04/22 04:50:44;;;;;;;6.11;3.71;;;;;;;6.85;68.65;99700.69;2003350;81;20339;-84
2021/04/22 04:53:47;;;;;;;9.56;4.38;;;;;;;6.88;68.53;99713.66;2007190;81;20356;-82
2021/04/22 04:56:49;;;;;;;7.81;3.45;;;;;;;6.85;68.48;99717.03;2004620;81;20316;-84
2021/04/22 04:59:51;;;;;;;11.82;4.40;;;;;;;6.84;68.44;99729.94;2002375;81;20355;-83
2021/04/22 05:02:53;;;;;;;9.45;3.95;;;;;;;6.85;68.54;99736.84;2001146;79;34224;-83
2021/04/22 05:05:55;;;;;;;11.82;4.18;;;;;;;6.84;68.38;99743.72;2002618;81;20315;-82
2021/04/22 05:08:57;;;;;;;7.36;3.75;;;;;;;6.83;68.15;99741.97;2002174;81;20338;-88
2021/04/22 05:11:58;;;;;;;8.69;3.61;;;;;;;6.82;68.12;99749.66;2003099;81;20312;-85
2021/04/22 05:24:51;;;;;;;10.44;4.44;;;;;;;6.96;67.30;99769.69;2166592;71;20467;-83
2021/04/22 05:27:53;;;;;;;8.21;3.24;;;;;;;6.97;66.91;99768.84;2005593;81;20316;-84
2021/04/22 05:30:54;;;;;;;8.19;3.39;;;;;;;7.02;66.67;99770.66;2008507;81;20365;-86
2021/04/22 05:33:56;;;;;;;7.09;3.17;;;;;;;7.08;66.68;99773.31;2010006;81;20325;-84
2021/04/22 05:36:58;;;;;;;11.11;3.58;;;;;;;7.13;66.33;99771.66;1999243;81;20451;-84
2021/04/22 05:40:00;;;;;;;10.39;3.81;;;;;;;7.18;65.97;99777.78;1997452;81;20312;-81
2021/04/22 05:43:02;;;;;;;7.51;3.05;;;;;;;7.30;65.94;99779.69;1997409;81;20353;-83
2021/04/22 05:46:04;;;;;;;10.64;3.06;;;;;;;7.57;65.06;99788.72;1996470;79;25798;-82
2021/04/22 05:49:06;;;;;;;7.75;2.84;;;;;;;7.98;63.39;99787.50;1996845;81;20658;-81
2021/04/22 05:52:07;;;;;;;9.38;2.96;;;;;;;8.13;61.48;99791.16;1998062;81;20580;-82
2021/04/22 05:55:10;;;;;;;10.06;2.85;;;;;;;8.26;61.42;99802.53;1996307;81;20183;-83
2021/04/22 05:58:12;;;;;;;3.76;2.39;;;;;;;8.36;60.82;99800.91;1998488;81;20590;-81
2021/04/22 06:01:13;;;;;;;9.90;3.41;;;;;;;8.52;59.74;99801.94;1997295;81;20176;-81
2021/04/22 06:04:16;;;;;;;6.72;3.21;;;;;;;8.66;59.18;99813.31;1997133;81;20188;-81
2021/04/22 06:07:17;;;;;;;4.94;1.63;;;;;;;8.79;58.38;99810.84;1999045;81;20180;-81
2021/04/22 06:10:20;;;;;;;7.47;2.33;;;;;;;8.98;57.73;99819.69;1996359;81;20176;-83
2021/04/22 06:13:22;;;;;;;12.65;2.33;;;;;;;9.16;56.42;99816.38;1996819;81;20197;-83
2021/04/22 06:16:25;;;;;;;7.54;2.14;;;;;;;9.36;55.26;99822.56;1995402;81;20225;-81
2021/04/22 06:19:27;;;;;;;7.25;2.21;;;;;;;9.49;54.33;99830.41;1994415;81;20164;-83
2021/04/22 06:22:28;;;;;;;6.75;1.83;;;;;;;9.59;52.99;99835.69;1995765;81;20195;-81
2021/04/22 06:25:31;;;;;;;4.71;1.83;;;;;;;9.88;52.38;99833.28;1997523;81;20189;-83
2021/04/22 06:28:32;;;;;;;3.95;1.42;;;;;;;10.17;52.10;99832.53;1997497;81;20133;-84
2021/04/22 06:31:34;;;;;;;7.07;1.65;;;;;;;10.38;51.66;99848.22;1999465;78;21819;-84
2021/04/22 06:34:36;;;;;;;5.54;1.70;;;;;;;10.57;50.13;99842.22;2001910;81;20704;-83
2021/04/22 06:37:39;;;;;;;4.99;1.59;;;;;;;10.81;49.20;99845.75;2000234;81;20325;-83
2021/04/22 06:40:41;;;;;;;4.14;1.64;;;;;;;11.01;48.59;99851.00;1998911;81;20883;-83
2021/04/22 06:43:42;;;;;;;5.64;1.70;;;;;;;11.13;47.67;99857.06;2000749;81;20176;-82
2021/04/22 06:46:47;;;;;;;6.56;1.69;;;;;;;11.29;47.18;99852.72;1998916;81;20188;-84
2021/04/22 06:49:49;;;;;;;5.24;1.33;;;;;;;11.31;46.58;99856.22;2001164;81;20179;-83
2021/04/22 06:52:51;;;;;;;4.69;1.59;;;;;;;11.50;45.98;99865.75;1994622;81;21042;-81
2021/04/22 06:55:53;;;;;;;5.39;1.60;;;;;;;11.59;45.56;99862.25;1991530;81;20160;-81
2021/04/22 06:58:56;;;;;;;5.40;2.05;;;;;;;11.65;45.29;99866.56;1992644;81;20156;-78
2021/04/22 07:01:57;;;;;;;6.22;1.85;;;;;;;11.28;44.19;99871.78;1989110;81;23213;-79
2021/04/22 07:04:59;;;;;;;4.96;1.48;;;;;;;11.31;45.10;99877.00;1997911;81;20372;-79
2021/04/22 07:08:01;;;;;;;5.96;1.40;;;;;;;11.32;44.55;99870.09;1986682;81;21050;-74
2021/04/22 07:11:04;;;;;;;2.76;1.16;;;;;;;11.58;44.37;99875.25;1986503;81;20685;-75
2021/04/22 07:14:05;;;;;;;3.88;1.19;;;;;;;11.82;43.44;99877.84;1987007;81;20201;-76
2021/04/22 07:17:07;;;;;;;5.76;1.16;;;;;;;11.95;43.21;99882.19;1982502;79;30342;-76
2021/04/22 07:20:16;;;;;;;5.07;1.20;;;;;;;12.18;42.95;99889.06;1982240;81;20286;-76
2021/04/22 07:23:28;;;;;;;7.27;1.10;;;;;;;12.02;41.61;99873.47;1981325;81;20184;-75
2021/04/22 07:26:29;;;;;;;4.90;1.16;;;;;;;12.17;42.12;99880.38;1982498;81;20173;-76
2021/04/22 07:29:31;;;;;;;4.28;1.29;;;;;;;12.19;41.16;99886.44;1982112;81;20200;-75
2021/04/22 07:32:33;;;;;;;5.18;1.30;;;;;;;12.23;40.85;99884.72;1984799;79;20211;-75
2021/04/22 07:35:37;;;;;;;8.23;1.92;;;;;;;12.09;41.11;99893.44;1987151;81;20266;-76
2021/04/22 07:38:39;;;;;;;3.81;0.98;;;;;;;12.29;40.94;99882.94;1986567;81;20657;-76
2021/04/22 07:41:41;;;;;;;5.81;1.35;;;;;;;12.44;40.96;99896.78;1987185;81;20723;-75
2021/04/22 07:44:46;;;;;;;5.10;1.10;;;;;;;12.69;40.90;99899.28;1986678;81;20188;-75
2021/04/22 07:47:48;;;;;;;5.39;1.14;;;;;;;12.77;40.52;99903.59;1981229;79;23119;-74
2021/04/22 07:50:50;;;;;;;5.81;1.50;;;;;;;12.89;39.89;99901.78;1981747;81;20572;-74
2021/04/22 07:53:52;;;;;;;6.70;1.56;;;;;;;12.95;39.69;99900.88;1980974;82;20828;-75
2021/04/22 07:56:54;;;;;;;7.39;1.45;;;;;;;12.82;40.49;99905.28;1981778;82;20180;-75
2021/04/22 07:59:56;;;;;;;4.64;1.45;;;;;;;13.12;40.89;99903.41;1981633;81;20222;-76
2021/04/22 08:03:17;;;;;;;3.43;1.40;;;;;;;13.26;39.39;99899.81;1981638;81;20338;-75
2021/04/22 08:06:19;;;;;;;5.79;1.60;;;;;;;13.20;39.30;99914.66;1981488;81;20206;-74
2021/04/22 08:09:21;;;;;;;5.93;2.10;;;;;;;13.63;39.91;99909.97;1982280;82;20808;-74
2021/04/22 08:12:22;;;;;;;5.84;1.33;;;;;;;13.74;39.04;99915.97;1981388;82;20196;-74
2021/04/22 08:15:24;;;;;;;3.51;1.50;;;;;;;13.78;39.01;99915.06;1984529;79;24210;-74
2021/04/22 08:18:28;;;;;;;4.54;1.49;;;;;;;13.82;38.34;99911.56;1981394;81;20742;-74
2021/04/22 08:21:30;;;;;;;4.35;1.04;;;;;;;13.63;37.46;99916.94;1981274;81;20303;-75
2021/04/22 08:24:32;;;;;;;5.44;1.40;;;;;;;13.63;38.19;99919.53;1982584;81;20230;-74
2021/04/22 08:27:34;;;;;;;6.20;1.55;;;;;;;14.21;38.35;99909.44;1980858;82;20190;-75
2021/04/22 08:30:43;;;;;;;6.32;1.40;;;;;;;14.62;38.62;99915.94;1981864;78;21712;-74
2021/04/22 08:33:47;;;;;;;5.03;1.20;;;;;;;14.57;36.36;99921.25;1986704;81;20690;-75
2021/04/22 08:36:50;;;;;;;2.97;1.25;;;;;;;14.54;36.82;99928.22;1986219;81;20205;-75
2021/04/22 08:39:51;;;;;;;5.84;1.61;;;;;;;14.45;35.67;99918.78;1985380;81;20306;-75
2021/04/22 08:42:54;;;;;;;4.29;1.33;;;;;;;14.12;36.10;99920.81;1986567;81;20380;-75
2021/04/22 08:45:55;;;;;;;5.70;2.08;;;;;;;14.42;37.23;99924.88;1984548;79;36952;-74
2021/04/22 08:48:57;;;;;;;5.50;1.20;;;;;;;14.64;37.11;99915.03;1981241;82;20290;-74
2021/04/22 08:51:59;;;;;;;4.39;1.44;;;;;;;14.82;36.60;99932.25;1980677;82;20173;-75
2021/04/22 08:55:06;;;;;;;4.86;1.16;;;;;;;15.36;36.54;99932.34;1981390;82;20197;-74
2021/04/22 08:58:07;;;;;;;6.26;1.75;;;;;;;15.37;35.91;99931.47;1981375;81;20173;-75
2021/04/22 09:01:12;;;;;;;5.24;1.30;;;;;;;15.50;35.77;99927.78;1982720;79;22129;-75
2021/04/22 09:04:14;;;;;;;6.89;1.75;;;;;;;15.27;34.88;99922.91;1986471;81;20187;-74
2021/04/22 09:07:16;;;;;;;6.40;1.31;;;;;;;15.51;35.08;99926.88;1986505;81;20208;-74
2021/04/22 09:10:28;;;;;;;8.54;2.16;;;;;;;15.58;34.86;99928.50;1986765;81;20229;-74
2021/04/22 09:13:33;;;;;;;7.70;2.22;;;;;;;15.80;34.77;99929.06;1987042;81;20372;-74
2021/04/22 09:16:35;;;;;;;3.56;1.16;;;;;;;15.93;34.47;99924.47;1982614;79;23652;-75
2021/04/22 09:19:42;;;;;;;7.25;1.06;;;;;;;15.77;33.42;99926.47;1981803;82;20226;-75
2021/04/22 09:22:43;;;;;;;3.47;1.10;;;;;;;15.75;33.56;99928.28;1981630;82;20165;-75
2021/04/22 09:25:52;;;;;;;5.22;1.30;;;;;;;15.62;32.60;99930.25;1982288;82;20208;-75
2021/04/22 09:28:54;;;;;;;5.40;1.04;;;;;;;15.56;33.22;99925.06;1980689;82;20169;-75
2021/04/22 09:32:31;;;;;;;5.84;1.13;;;;;;;15.13;33.29;99924.00;1980873;79;25029;-75
2021/04/22 09:35:34;;;;;;;8.55;1.26;;;;;;;15.48;33.14;99926.94;1980569;81;20208;-74
2021/04/22 09:38:38;;;;;;;3.85;0.86;;;;;;;15.59;31.96;99929.41;1981755;81;20202;-77
2021/04/22 09:42:05;;;;;;;3.81;1.10;;;;;;;15.44;32.16;99927.88;1982946;81;20236;-77
2021/04/22 09:45:14;;;;;;;4.84;1.24;;;;;;;15.70;32.05;99930.97;1982017;81;20185;-77
2021/04/22 09:48:27;;;;;;;3.70;0.91;;;;;;;16.10;32.15;99929.41;1982251;79;22769;-76
2021/04/22 09:51:32;;;;;;;4.29;1.02;;;;;;;16.62;32.08;99934.50;1982631;81;20729;-77
2021/04/22 09:54:43;;;;;;;7.53;1.09;;;;;;;16.84;31.15;99940.22;1983284;81;20388;-77
2021/04/22 09:57:46;;;;;;;6.54;1.10;;;;;;;17.15;31.72;99938.66;1982190;81;20177;-76
2021/04/22 10:00:48;;;;;;;3.47;0.99;;;;;;;17.15;30.74;99930.78;1980505;79;138279;-76
2021/04/22 10:03:51;;;;;;;3.94;1.10;;;;;;;17.38;29.63;99932.88;1980796;81;20211;-77
2021/04/22 10:06:52;;;;;;;3.56;1.09;;;;;;;17.23;29.71;99933.22;1980843;81;20181;-76
2021/04/22 10:10:00;;;;;;;3.13;0.90;;;;;;;16.99;30.25;99932.00;1981584;81;20215;-75
2021/04/22 10:13:03;;;;;;;3.95;0.85;;;;;;;16.84;29.29;99932.34;1981801;81;20669;-76
2021/04/22 10:16:05;;;;;;;5.69;1.24;;;;;;;16.37;30.25;99944.63;1983144;79;24538;-77
2021/04/22 10:19:16;;;;;;;4.21;0.98;;;;;;;16.82;31.25;99944.63;1987900;81;20200;-77
2021/04/22 10:22:26;;;;;;;6.35;1.29;;;;;;;17.15;29.50;99941.28;1987458;81;20945;-77
2021/04/22 10:25:32;;;;;;;3.84;1.06;;;;;;;16.71;29.89;99939.63;1987294;81;20187;-77
2021/04/22 10:28:33;;;;;;;4.32;0.98;;;;;;;16.94;30.61;99940.88;1987708;81;20233;-76
2021/04/22 10:31:37;;;;;;;3.05;0.94;;;;;;;17.18;30.72;99930.72;1984216;79;24142;-77
2021/04/22 10:34:40;;;;;;;4.31;0.95;;;;;;;17.40;28.59;99930.19;1983153;81;20222;-76
2021/04/22 10:37:43;;;;;;;2.53;0.90;;;;;;;17.66;29.08;99933.09;1982747;81;20169;-78
2021/04/22 10:40:49;;;;;;;4.71;0.81;;;;;;;17.15;29.21;99943.91;1982574;81;20411;-77
2021/04/22 10:43:52;;;;;;;2.65;0.70;;;;;;;17.22;27.85;99928.88;1982550;81;20309;-78
2021/04/22 10:46:53;;;;;;;5.85;0.90;;;;;;;17.66;29.20;99932.22;1984211;79;20557;-77
2021/04/22 10:49:55;;;;;;;2.91;0.94;;;;;;;18.01;26.63;99924.34;1987699;81;20207;-77
2021/04/22 10:52:59;;;;;;;2.92;0.73;;;;;;;17.75;26.04;99925.00;1988276;81;20167;-77
2021/04/22 10:56:01;;;;;;;3.78;0.91;;;;;;;17.80;27.54;99920.50;1987683;81;20197;-77
2021/04/22 10:59:03;;;;;;;4.34;0.86;;;;;;;18.11;27.34;99923.19;1986450;81;20249;-77
2021/04/22 11:02:16;;;;;;;4.69;1.00;;;;;;;18.30;26.53;99928.81;1987238;78;23511;-77
2021/04/22 11:05:18;;;;;;;5.65;1.10;;;;;;;18.26;25.50;99918.41;1987833;81;20278;-77
2021/04/22 11:08:33;;;;;;;3.60;1.00;;;;;;;17.71;24.33;99917.22;1987324;81;20197;-77
2021/04/22 11:11:35;;;;;;;4.71;0.95;;;;;;;17.93;25.51;99910.53;1987657;81;20168;-78
2021/04/22 11:14:43;;;;;;;4.01;1.21;;;;;;;18.14;26.25;99905.63;1987111;81;20197;-77
2021/04/22 11:17:45;;;;;;;2.60;0.80;;;;;;;18.66;26.48;99907.66;1982785;79;26020;-78
2021/04/22 11:20:47;;;;;;;2.58;0.89;;;;;;;18.72;25.11;99907.50;1982684;81;20184;-77
2021/04/22 11:23:49;;;;;;;2.94;1.10;;;;;;;18.93;24.08;99916.53;1982429;81;20263;-76
2021/04/22 11:26:59;;;;;;;5.24;1.05;;;;;;;18.83;24.20;99904.53;1982669;81;20208;-79
2021/04/22 11:30:05;;;;;;;5.20;0.70;;;;;;;19.21;24.82;99901.63;1983687;81;20287;-77
2021/04/22 11:33:07;;;;;;;3.21;0.77;;;;;;;19.22;22.34;99908.63;1981631;79;30677;-77
2021/04/22 11:36:27;;;;;;;5.41;1.00;;;;;;;18.84;23.28;99908.91;1981957;81;20173;-77
2021/04/22 11:39:31;;;;;;;4.54;0.84;;;;;;;19.26;24.35;99907.59;1983704;81;20200;-77
2021/04/22 11:42:39;;;;;;;3.54;1.29;;;;;;;19.59;24.04;99910.09;1982799;81;20266;-78
2021/04/22 11:45:51;;;;;;;3.41;0.79;;;;;;;19.81;23.25;99908.47;1983087;78;54759;-79
2021/04/22 11:48:53;;;;;;;4.14;0.80;;;;;;;19.85;23.62;99914.47;1988451;81;21060;-76
2021/04/22 11:51:56;;;;;;;3.56;0.80;;;;;;;20.03;22.38;99913.84;1987076;81;20756;-78
2021/04/22 11:54:58;;;;;;;3.51;0.91;;;;;;;20.00;21.71;99906.06;1986415;81;20195;-74
2021/04/22 11:58:06;;;;;;;2.84;1.00;;;;;;;20.17;22.47;99903.69;1983894;81;20193;-75
2021/04/22 12:01:09;;;;;;;7.41;1.01;;;;;;;20.26;22.70;99902.47;1984925;79;23135;-74
2021/04/22 12:04:11;;;;;;;2.47;0.86;;;;;;;20.31;21.20;99897.06;1982178;81;20703;-77
2021/04/22 12:07:22;;;;;;;3.34;0.90;;;;;;;19.98;22.06;99899.13;1983411;81;20237;-76
2021/04/22 12:10:25;;;;;;;2.21;0.90;;;;;;;19.86;21.38;99905.66;1983013;81;20635;-77
2021/04/22 12:13:28;;;;;;;2.20;0.80;;;;;;;19.80;21.54;99908.50;1982859;81;20995;-77
2021/04/22 12:16:36;;;;;;;2.86;0.70;;;;;;;19.89;21.10;99903.78;1983981;79;26759;-78
2021/04/22 12:19:43;;;;;;;2.04;0.60;;;;;;;19.76;20.37;99912.16;1987127;81;20643;-77
2021/04/22 12:22:48;;;;;;;4.49;0.80;;;;;;;19.59;20.05;99899.56;1991037;81;20239;-78
2021/04/22 12:25:49;;;;;;;2.33;0.95;;;;;;;19.57;19.60;99883.81;1986575;81;20241;-76
2021/04/22 12:29:04;;;;;;;2.90;0.70;;;;;;;19.91;21.26;99893.19;1987251;81;20175;-76
2021/04/22 12:32:07;;;;;;;2.16;0.70;;;;;;;19.81;19.32;99887.38;1982823;79;27950;-77
2021/04/22 12:35:16;;;;;;;1.74;0.70;;;;;;;19.62;18.50;99891.53;1982688;81;20172;-77
2021/04/22 12:38:38;;;;;;;1.75;0.70;;;;;;;19.66;18.70;99895.78;1983049;82;20188;-76
2021/04/22 12:41:39;;;;;;;3.05;0.70;;;;;;;19.31;15.71;99895.13;1982294;81;20683;-76
2021/04/22 12:44:53;;;;;;;2.58;0.60;;;;;;;19.13;17.93;99887.81;1982853;82;20192;-76
2021/04/22 12:47:57;;;;;;;2.22;0.51;;;;;;;19.24;16.76;99888.34;1981825;79;20432;-78
2021/04/22 12:50:59;;;;;;;2.33;0.80;;;;;;;19.48;16.60;99876.16;1982394;81;20180;-74
2021/04/22 12:54:02;;;;;;;1.77;0.60;;;;;;;19.68;16.96;99888.69;1983291;82;20196;-75
2021/04/22 12:57:10;;;;;;;4.61;0.50;;;;;;;19.73;15.45;99885.91;1982784;82;20330;-76
2021/04/22 13:00:13;;;;;;;3.63;0.70;;;;;;;19.80;17.82;99884.78;1980880;81;20202;-76
2021/04/22 13:03:24;;;;;;;1.91;0.76;;;;;;;20.02;17.99;99882.28;1981739;78;35527;-71
2021/04/22 13:06:26;;;;;;;3.89;0.91;;;;;;;20.26;18.20;99881.38;1982162;81;20196;-74
2021/04/22 13:09:28;;;;;;;1.36;0.57;;;;;;;20.33;17.26;99887.31;1983765;81;20244;-77
2021/04/22 13:12:30;;;;;;;1.29;0.64;;;;;;;20.30;16.55;99885.66;1987668;81;20192;-77
2021/04/22 13:15:32;;;;;;;2.15;0.64;;;;;;;20.63;16.42;99882.69;1982017;79;23743;-72
2021/04/22 13:18:35;;;;;;;1.64;0.80;;;;;;;20.84;16.55;99873.13;1987426;81;20698;-74
2021/04/22 13:21:39;;;;;;;2.49;0.80;;;;;;;20.89;15.76;99873.81;1987205;81;20187;-69
2021/04/22 13:24:42;;;;;;;2.56;1.04;;;;;;;20.91;15.74;99879.88;1989300;81;20924;-72
2021/04/22 13:27:43;;;;;;;2.13;0.64;;;;;;;20.91;15.72;99871.97;1988345;81;20187;-74
2021/04/22 13:30:47;;;;;;;6.51;0.75;;;;;;;21.04;15.70;99879.34;1987424;79;20924;-74
2021/04/22 13:33:51;;;;;;;1.58;0.65;;;;;;;20.94;14.59;99879.75;1981999;81;20214;-71
2021/04/22 13:37:02;;;;;;;3.86;0.70;;;;;;;20.59;14.51;99881.97;1982935;81;21157;-72
2021/04/22 13:40:14;;;;;;;2.36;0.69;;;;;;;20.68;16.71;99867.56;1982145;81;20188;-73
2021/04/22 13:43:19;;;;;;;3.31;0.84;;;;;;;20.63;16.10;99869.50;1982078;81;20571;-74
2021/04/22 13:46:21;;;;;;;3.06;0.65;;;;;;;20.55;16.10;99875.09;1984000;78;70655;-74
2021/04/22 13:49:26;;;;;;;2.39;0.66;;;;;;;20.40;16.22;99867.69;1987493;81;20184;-74
2021/04/22 13:52:28;;;;;;;2.94;0.73;;;;;;;20.61;17.13;99861.66;1987787;81;20168;-74
2021/04/22 13:55:29;;;;;;;2.92;0.80;;;;;;;20.77;17.50;99873.34;1987790;81;20179;-74
2021/04/22 13:58:36;;;;;;;1.84;0.93;;;;;;;20.65;15.40;99857.13;1988561;81;20188;-76
2021/04/22 14:01:40;;;;;;;4.28;0.70;;;;;;;20.69;17.08;99859.59;1984766;79;22266;-73
2021/04/22 14:04:44;;;;;;;5.14;1.00;;;;;;;20.41;17.13;99858.91;1982435;81;20492;-72
2021/04/22 14:07:52;;;;;;;4.04;0.94;;;;;;;20.48;17.27;99860.41;1982771;81;20854;-73
2021/04/22 14:10:58;;;;;;;2.76;1.04;;;;;;;20.49;17.87;99849.81;1982262;81;20204;-74
2021/04/22 14:14:00;;;;;;;3.46;0.90;;;;;;;20.63;18.33;99845.75;1982064;81;20202;-71
2021/04/22 14:17:02;;;;;;;3.67;0.90;;;;;;;20.88;18.16;99846.53;1984665;79;28808;-72
2021/04/22 14:20:06;;;;;;;6.94;1.02;;;;;;;20.76;17.96;99842.59;1987438;81;20212;-71
2021/04/22 14:23:07;;;;;;;5.14;1.00;;;;;;;20.71;18.32;99841.91;1987853;81;20189;-71
2021/04/22 14:26:12;;;;;;;2.46;0.80;;;;;;;20.91;19.11;99841.13;1987787;81;20183;-72
2021/04/22 14:29:14;;;;;;;6.05;1.13;;;;;;;20.96;17.97;99836.53;1991023;81;20211;-72
2021/04/22 14:32:16;;;;;;;4.47;1.00;;;;;;;21.01;18.03;99841.66;1982212;78;42979;-71
2021/04/22 14:35:18;;;;;;;3.20;0.90;;;;;;;21.14;17.48;99853.41;1982654;81;20207;-72
2021/04/22 14:38:20;;;;;;;3.06;0.96;;;;;;;20.97;17.56;99855.88;1982158;81;20571;-71
2021/04/22 14:41:22;;;;;;;5.00;1.13;;;;;;;20.73;17.52;99844.50;1982438;81;20212;-73
2021/04/22 14:44:24;;;;;;;2.44;0.80;;;;;;;20.81;18.20;99839.75;1981518;81;20671;-71